Terminal Aerodrome Forecast
Issued by NWS

Home | Current Version | Previous Version | Text Only | Print | Product List | Glossary On
Versions: 1 2 3 4 5 6 7 8 9 10 11 12 13 14 15 16 17 18 19 20 21 22
000
FTUS44 KEWX 212300
TAFSSF
TAF
KSSF 212323Z 2200/2224 14014G24KT P6SM FEW090 FEW250
     FM220500 15010KT P6SM SCT010
     FM220800 18007KT P6SM BKN010
     FM221500 18010KT P6SM SCT040
     FM221800 16012G22KT P6SM FEW080=

USA.gov is the U.S. government's official web portal to all federal, state and local government web resources and services.